sensor_id;sensor_type;location;lat;lon;timestamp;pressure;altitude;pressure_sealevel;temperature;humidity
20696;BME280;10507;52.754;13.040;2023-08-31T00:01:37;99870.53;;;14.93;100.00
20696;BME280;10507;52.754;13.040;2023-08-31T00:04:06;99867.09;;;14.91;100.00
20696;BME280;10507;52.754;13.040;2023-08-31T00:06:38;99869.66;;;14.93;100.00
20696;BME280;10507;52.754;13.040;2023-08-31T00:09:08;99884.19;;;15.02;100.00
20696;BME280;10507;52.754;13.040;2023-08-31T00:11:36;99892.97;;;15.04;100.00
20696;BME280;10507;52.754;13.040;2023-08-31T00:14:04;99886.88;;;15.02;100.00
20696;BME280;10507;52.754;13.040;2023-08-31T00:16:32;99900.69;;;15.08;100.00
20696;BME280;10507;52.754;13.040;2023-08-31T00:19:00;99916.69;;;15.10;100.00
20696;BME280;10507;52.754;13.040;2023-08-31T00:21:29;99915.97;;;15.08;100.00
20696;BME280;10507;52.754;13.040;2023-08-31T00:23:57;99919.50;;;15.08;100.00
20696;BME280;10507;52.754;13.040;2023-08-31T00:26:28;99923.75;;;15.11;100.00
20696;BME280;10507;52.754;13.040;2023-08-31T00:28:57;99927.44;;;15.10;100.00
20696;BME280;10507;52.754;13.040;2023-08-31T00:31:26;99933.94;;;15.07;100.00
20696;BME280;10507;52.754;13.040;2023-08-31T00:33:55;99940.03;;;15.09;100.00
20696;BME280;10507;52.754;13.040;2023-08-31T00:36:23;99939.53;;;15.04;100.00
20696;BME280;10507;52.754;13.040;2023-08-31T00:38:52;99956.28;;;15.08;100.00
20696;BME280;10507;52.754;13.040;2023-08-31T00:41:22;99957.50;;;15.04;100.00
20696;BME280;10507;52.754;13.040;2023-08-31T00:43:50;99957.75;;;15.01;100.00
20696;BME280;10507;52.754;13.040;2023-08-31T00:46:17;99966.56;;;15.03;100.00
20696;BME280;10507;52.754;13.040;2023-08-31T00:48:46;99989.03;;;15.02;100.00
20696;BME280;10507;52.754;13.040;2023-08-31T00:51:14;99997.09;;;15.02;100.00
20696;BME280;10507;52.754;13.040;2023-08-31T00:53:44;99999.03;;;15.00;100.00
20696;BME280;10507;52.754;13.040;2023-08-31T00:56:13;99999.19;;;14.98;100.00
20696;BME280;10507;52.754;13.040;2023-08-31T00:58:41;100023.97;;;15.02;100.00
20696;BME280;10507;52.754;13.040;2023-08-31T01:01:14;100037.69;;;14.99;100.00
20696;BME280;10507;52.754;13.040;2023-08-31T01:03:53;100051.59;;;15.04;100.00
20696;BME280;10507;52.754;13.040;2023-08-31T01:06:33;100054.75;;;14.97;100.00
20696;BME280;10507;52.754;13.040;2023-08-31T01:09:09;100065.50;;;14.97;100.00
20696;BME280;10507;52.754;13.040;2023-08-31T01:12:01;100067.59;;;14.94;100.00
20696;BME280;10507;52.754;13.040;2023-08-31T01:14:33;100065.28;;;14.89;100.00
20696;BME280;10507;52.754;13.040;2023-08-31T01:17:03;100081.91;;;14.94;100.00
20696;BME280;10507;52.754;13.040;2023-08-31T01:19:40;100091.69;;;14.95;100.00
20696;BME280;10507;52.754;13.040;2023-08-31T01:22:14;100106.81;;;14.96;100.00
20696;BME280;10507;52.754;13.040;2023-08-31T01:24:45;100081.41;;;14.89;100.00
20696;BME280;10507;52.754;13.040;2023-08-31T01:27:15;100089.31;;;14.91;100.00
20696;BME280;10507;52.754;13.040;2023-08-31T01:29:43;100102.56;;;14.94;100.00
20696;BME280;10507;52.754;13.040;2023-08-31T01:32:11;100088.63;;;14.89;100.00
20696;BME280;10507;52.754;13.040;2023-08-31T01:34:39;100101.19;;;14.88;100.00
20696;BME280;10507;52.754;13.040;2023-08-31T01:37:12;100089.94;;;14.83;100.00
20696;BME280;10507;52.754;13.040;2023-08-31T01:39:49;100110.09;;;14.78;100.00
20696;BME280;10507;52.754;13.040;2023-08-31T01:42:20;100134.59;;;14.73;100.00
20696;BME280;10507;52.754;13.040;2023-08-31T01:44:50;100154.63;;;14.69;100.00
20696;BME280;10507;52.754;13.040;2023-08-31T01:47:21;100172.56;;;14.68;100.00
20696;BME280;10507;52.754;13.040;2023-08-31T01:49:50;100177.53;;;14.62;100.00
20696;BME280;10507;52.754;13.040;2023-08-31T01:52:21;100171.66;;;14.57;100.00
20696;BME280;10507;52.754;13.040;2023-08-31T01:54:50;100183.38;;;14.55;100.00
20696;BME280;10507;52.754;13.040;2023-08-31T01:57:18;100176.72;;;14.48;100.00
20696;BME280;10507;52.754;13.040;2023-08-31T01:59:49;100169.31;;;14.39;100.00
20696;BME280;10507;52.754;13.040;2023-08-31T02:02:17;100174.28;;;14.32;100.00
20696;BME280;10507;52.754;13.040;2023-08-31T02:04:46;100187.31;;;14.26;100.00
20696;BME280;10507;52.754;13.040;2023-08-31T02:07:13;100196.78;;;14.19;100.00
20696;BME280;10507;52.754;13.040;2023-08-31T02:09:41;100204.22;;;14.15;100.00
20696;BME280;10507;52.754;13.040;2023-08-31T02:12:11;100199.59;;;14.04;100.00
20696;BME280;10507;52.754;13.040;2023-08-31T02:14:39;100192.50;;;14.03;100.00
20696;BME280;10507;52.754;13.040;2023-08-31T02:17:07;100190.81;;;14.02;100.00
20696;BME280;10507;52.754;13.040;2023-08-31T02:19:35;100204.31;;;14.01;100.00
20696;BME280;10507;52.754;13.040;2023-08-31T02:22:03;100208.09;;;13.98;100.00
20696;BME280;10507;52.754;13.040;2023-08-31T02:24:31;100200.47;;;13.92;100.00
20696;BME280;10507;52.754;13.040;2023-08-31T02:26:59;100188.03;;;13.91;100.00
20696;BME280;10507;52.754;13.040;2023-08-31T02:29:29;100182.44;;;13.94;100.00
20696;BME280;10507;52.754;13.040;2023-08-31T02:31:57;100176.31;;;13.92;100.00
20696;BME280;10507;52.754;13.040;2023-08-31T02:34:25;100166.47;;;13.92;100.00
20696;BME280;10507;52.754;13.040;2023-08-31T02:36:53;100158.50;;;13.91;100.00
20696;BME280;10507;52.754;13.040;2023-08-31T02:39:21;100165.59;;;13.92;100.00
20696;BME280;10507;52.754;13.040;2023-08-31T02:41:49;100155.94;;;13.89;100.00
20696;BME280;10507;52.754;13.040;2023-08-31T02:44:17;100154.97;;;13.90;100.00
20696;BME280;10507;52.754;13.040;2023-08-31T02:46:48;100145.53;;;13.85;100.00
20696;BME280;10507;52.754;13.040;2023-08-31T02:49:17;100129.75;;;13.80;100.00
20696;BME280;10507;52.754;13.040;2023-08-31T02:51:45;100143.69;;;13.85;100.00
20696;BME280;10507;52.754;13.040;2023-08-31T02:54:16;100139.41;;;13.83;100.00
20696;BME280;10507;52.754;13.040;2023-08-31T02:56:45;100146.84;;;13.79;100.00
20696;BME280;10507;52.754;13.040;2023-08-31T02:59:17;100145.97;;;13.79;100.00
20696;BME280;10507;52.754;13.040;2023-08-31T03:01:50;100150.59;;;13.77;100.00
20696;BME280;10507;52.754;13.040;2023-08-31T03:04:20;100166.56;;;13.78;100.00
20696;BME280;10507;52.754;13.040;2023-08-31T03:06:48;100212.53;;;13.86;100.00
20696;BME280;10507;52.754;13.040;2023-08-31T03:09:17;100229.25;;;13.90;100.00
20696;BME280;10507;52.754;13.040;2023-08-31T03:11:47;100228.38;;;13.89;100.00
20696;BME280;10507;52.754;13.040;2023-08-31T03:14:18;100242.38;;;13.95;100.00
20696;BME280;10507;52.754;13.040;2023-08-31T03:16:54;100230.00;;;13.92;100.00
20696;BME280;10507;52.754;13.040;2023-08-31T03:19:38;100210.44;;;13.90;100.00
20696;BME280;10507;52.754;13.040;2023-08-31T03:22:06;100223.03;;;13.89;100.00
20696;BME280;10507;52.754;13.040;2023-08-31T03:24:34;100234.84;;;13.87;100.00
20696;BME280;10507;52.754;13.040;2023-08-31T03:27:02;100260.59;;;13.89;100.00
20696;BME280;10507;52.754;13.040;2023-08-31T03:29:32;100273.38;;;13.86;100.00
20696;BME280;10507;52.754;13.040;2023-08-31T03:32:02;100281.22;;;13.89;100.00
20696;BME280;10507;52.754;13.040;2023-08-31T03:34:31;100290.44;;;13.85;100.00
20696;BME280;10507;52.754;13.040;2023-08-31T03:36:59;100316.19;;;13.87;100.00
20696;BME280;10507;52.754;13.040;2023-08-31T03:39:27;100317.59;;;13.80;100.00
20696;BME280;10507;52.754;13.040;2023-08-31T03:41:55;100326.50;;;13.81;100.00
20696;BME280;10507;52.754;13.040;2023-08-31T03:44:23;100343.47;;;13.81;100.00
20696;BME280;10507;52.754;13.040;2023-08-31T03:46:51;100365.59;;;13.85;100.00
20696;BME280;10507;52.754;13.040;2023-08-31T03:49:21;100359.25;;;13.86;100.00
20696;BME280;10507;52.754;13.040;2023-08-31T03:51:49;100383.19;;;13.89;100.00
20696;BME280;10507;52.754;13.040;2023-08-31T03:54:17;100358.69;;;13.81;100.00
20696;BME280;10507;52.754;13.040;2023-08-31T03:56:45;100395.84;;;13.87;100.00
20696;BME280;10507;52.754;13.040;2023-08-31T03:59:13;100404.88;;;13.86;100.00
20696;BME280;10507;52.754;13.040;2023-08-31T04:01:41;100416.38;;;13.88;100.00
20696;BME280;10507;52.754;13.040;2023-08-31T04:04:09;100405.06;;;13.83;100.00
20696;BME280;10507;52.754;13.040;2023-08-31T04:06:38;100437.84;;;13.88;100.00
20696;BME280;10507;52.754;13.040;2023-08-31T04:09:06;100440.63;;;13.86;100.00
20696;BME280;10507;52.754;13.040;2023-08-31T04:11:34;100454.69;;;13.90;100.00
20696;BME280;10507;52.754;13.040;2023-08-31T04:14:02;100436.22;;;13.85;100.00
20696;BME280;10507;52.754;13.040;2023-08-31T04:16:31;100434.59;;;13.83;100.00
20696;BME280;10507;52.754;13.040;2023-08-31T04:18:59;100453.38;;;13.83;100.00
20696;BME280;10507;52.754;13.040;2023-08-31T04:21:27;100472.16;;;13.83;100.00
20696;BME280;10507;52.754;13.040;2023-08-31T04:23:57;100481.06;;;13.83;100.00
20696;BME280;10507;52.754;13.040;2023-08-31T04:26:26;100494.41;;;13.85;100.00
20696;BME280;10507;52.754;13.040;2023-08-31T04:28:54;100495.56;;;13.81;100.00
20696;BME280;10507;52.754;13.040;2023-08-31T04:31:23;100504.38;;;13.83;100.00
20696;BME280;10507;52.754;13.040;2023-08-31T04:33:51;100512.31;;;13.84;100.00
20696;BME280;10507;52.754;13.040;2023-08-31T04:36:20;100520.16;;;13.87;100.00
20696;BME280;10507;52.754;13.040;2023-08-31T04:38:49;100521.06;;;13.88;100.00
20696;BME280;10507;52.754;13.040;2023-08-31T04:41:18;100521.91;;;13.88;100.00
20696;BME280;10507;52.754;13.040;2023-08-31T04:43:46;100533.41;;;13.90;100.00
20696;BME280;10507;52.754;13.040;2023-08-31T04:46:15;100535.19;;;13.90;100.00
20696;BME280;10507;52.754;13.040;2023-08-31T04:48:43;100514.34;;;13.81;100.00
20696;BME280;10507;52.754;13.040;2023-08-31T04:51:27;100528.34;;;13.86;100.00
20696;BME280;10507;52.754;13.040;2023-08-31T04:53:56;100552.19;;;13.90;100.00
20696;BME280;10507;52.754;13.040;2023-08-31T04:56:32;100552.84;;;13.94;100.00
20696;BME280;10507;52.754;13.040;2023-08-31T04:59:01;100545.84;;;13.91;100.00
20696;BME280;10507;52.754;13.040;2023-08-31T05:01:29;100570.25;;;14.01;100.00
20696;BME280;10507;52.754;13.040;2023-08-31T05:03:57;100564.69;;;14.04;100.00
20696;BME280;10507;52.754;13.040;2023-08-31T05:06:25;100574.75;;;14.15;100.00
20696;BME280;10507;52.754;13.040;2023-08-31T05:08:53;100555.81;;;14.17;100.00
20696;BME280;10507;52.754;13.040;2023-08-31T05:11:21;100561.00;;;14.20;100.00
20696;BME280;10507;52.754;13.040;2023-08-31T05:13:51;100542.84;;;14.23;100.00
20696;BME280;10507;52.754;13.040;2023-08-31T05:16:19;100536.41;;;14.26;100.00
20696;BME280;10507;52.754;13.040;2023-08-31T05:18:48;100537.50;;;14.36;100.00
20696;BME280;10507;52.754;13.040;2023-08-31T05:21:16;100514.09;;;14.38;100.00
20696;BME280;10507;52.754;13.040;2023-08-31T05:23:44;100735.31;;;15.97;100.00
20696;BME280;10507;52.754;13.040;2023-08-31T05:26:12;100511.38;;;17.08;100.00
20696;BME280;10507;52.754;13.040;2023-08-31T05:28:41;100382.94;;;17.82;100.00
20696;BME280;10507;52.754;13.040;2023-08-31T05:31:11;100301.63;;;18.68;100.00
20696;BME280;10507;52.754;13.040;2023-08-31T05:33:41;100181.09;;;18.85;100.00
20696;BME280;10507;52.754;13.040;2023-08-31T05:36:09;100130.69;;;19.13;97.53
20696;BME280;10507;52.754;13.040;2023-08-31T05:38:37;100097.56;;;19.39;94.98
20696;BME280;10507;52.754;13.040;2023-08-31T05:41:06;99924.19;;;19.03;92.90
20696;BME280;10507;52.754;13.040;2023-08-31T05:43:35;100043.13;;;19.42;92.86
20696;BME280;10507;52.754;13.040;2023-08-31T05:46:03;100005.13;;;19.61;91.09
20696;BME280;10507;52.754;13.040;2023-08-31T05:48:32;99935.50;;;19.44;90.46
20696;BME280;10507;52.754;13.040;2023-08-31T05:51:00;99993.13;;;19.91;89.76
20696;BME280;10507;52.754;13.040;2023-08-31T05:53:28;99894.81;;;19.81;88.79
20696;BME280;10507;52.754;13.040;2023-08-31T05:55:57;99898.13;;;19.75;89.18
20696;BME280;10507;52.754;13.040;2023-08-31T05:58:31;99830.47;;;19.65;88.75
20696;BME280;10507;52.754;13.040;2023-08-31T06:01:00;99804.34;;;19.56;88.62
20696;BME280;10507;52.754;13.040;2023-08-31T06:03:29;99855.63;;;19.58;89.43
20696;BME280;10507;52.754;13.040;2023-08-31T06:05:59;99867.19;;;19.78;88.89
20696;BME280;10507;52.754;13.040;2023-08-31T06:08:27;99856.41;;;19.86;88.74
20696;BME280;10507;52.754;13.040;2023-08-31T06:10:56;99773.50;;;19.93;87.10
20696;BME280;10507;52.754;13.040;2023-08-31T06:13:25;99825.38;;;19.98;87.48
20696;BME280;10507;52.754;13.040;2023-08-31T06:15:54;99528.28;;;18.94;86.26
20696;BME280;10507;52.754;13.040;2023-08-31T06:18:24;99634.34;;;18.06;90.88
20696;BME280;10507;52.754;13.040;2023-08-31T06:20:52;99699.59;;;17.64;93.33
20696;BME280;10507;52.754;13.040;2023-08-31T06:23:22;99777.59;;;17.38;95.74
20696;BME280;10507;52.754;13.040;2023-08-31T06:25:50;99800.28;;;17.16;97.38
20696;BME280;10507;52.754;13.040;2023-08-31T06:28:18;99875.09;;;17.14;98.66
20696;BME280;10507;52.754;13.040;2023-08-31T06:30:46;99917.59;;;17.22;99.24
20696;BME280;10507;52.754;13.040;2023-08-31T06:33:14;99921.50;;;17.08;100.00
20696;BME280;10507;52.754;13.040;2023-08-31T06:35:46;99924.16;;;16.98;100.00
20696;BME280;10507;52.754;13.040;2023-08-31T06:38:15;99900.53;;;16.81;100.00
20696;BME280;10507;52.754;13.040;2023-08-31T06:40:44;99888.19;;;16.57;100.00
20696;BME280;10507;52.754;13.040;2023-08-31T06:43:12;99898.34;;;16.44;100.00
20696;BME280;10507;52.754;13.040;2023-08-31T06:45:41;99901.41;;;16.18;100.00
20696;BME280;10507;52.754;13.040;2023-08-31T06:48:11;99928.91;;;16.12;100.00
20696;BME280;10507;52.754;13.040;2023-08-31T06:50:39;99965.16;;;16.08;100.00
20696;BME280;10507;52.754;13.040;2023-08-31T06:53:07;99943.31;;;15.90;100.00
20696;BME280;10507;52.754;13.040;2023-08-31T06:55:38;99952.03;;;15.71;100.00
20696;BME280;10507;52.754;13.040;2023-08-31T06:58:08;100002.81;;;15.76;100.00
20696;BME280;10507;52.754;13.040;2023-08-31T07:00:36;100010.03;;;15.75;100.00
20696;BME280;10507;52.754;13.040;2023-08-31T07:03:04;99989.72;;;15.60;100.00
20696;BME280;10507;52.754;13.040;2023-08-31T07:05:33;99999.63;;;15.59;100.00
20696;BME280;10507;52.754;13.040;2023-08-31T07:08:03;100005.13;;;15.58;100.00
20696;BME280;10507;52.754;13.040;2023-08-31T07:10:33;100016.78;;;15.58;100.00
20696;BME280;10507;52.754;13.040;2023-08-31T07:13:03;99986.09;;;15.50;100.00
20696;BME280;10507;52.754;13.040;2023-08-31T07:15:33;100020.44;;;15.57;100.00
20696;BME280;10507;52.754;13.040;2023-08-31T07:18:01;100039.06;;;15.72;100.00
20696;BME280;10507;52.754;13.040;2023-08-31T07:20:32;100026.78;;;15.79;100.00
20696;BME280;10507;52.754;13.040;2023-08-31T07:23:00;100008.16;;;15.87;100.00
20696;BME280;10507;52.754;13.040;2023-08-31T07:25:28;99992.34;;;15.94;100.00
20696;BME280;10507;52.754;13.040;2023-08-31T07:27:56;100054.53;;;16.34;100.00
20696;BME280;10507;52.754;13.040;2023-08-31T07:30:24;100054.94;;;16.83;100.00
20696;BME280;10507;52.754;13.040;2023-08-31T07:32:53;100005.81;;;17.00;97.92
20696;BME280;10507;52.754;13.040;2023-08-31T07:35:22;100068.66;;;17.53;96.96
20696;BME280;10507;52.754;13.040;2023-08-31T07:37:50;100039.59;;;18.16;94.17
20696;BME280;10507;52.754;13.040;2023-08-31T07:40:17;100101.00;;;19.21;90.09
20696;BME280;10507;52.754;13.040;2023-08-31T07:42:46;99880.13;;;19.38;86.18
20696;BME280;10507;52.754;13.040;2023-08-31T07:45:14;99957.13;;;19.99;84.02
20696;BME280;10507;52.754;13.040;2023-08-31T07:47:42;99835.75;;;19.85;83.72
20696;BME280;10507;52.754;13.040;2023-08-31T07:50:11;99875.59;;;19.92;84.80
20696;BME280;10507;52.754;13.040;2023-08-31T07:52:40;99721.59;;;19.62;83.55
20696;BME280;10507;52.754;13.040;2023-08-31T07:55:08;99676.56;;;19.35;83.57
20696;BME280;10507;52.754;13.040;2023-08-31T07:57:36;99546.63;;;18.82;82.97
20696;BME280;10507;52.754;13.040;2023-08-31T08:00:06;99661.19;;;18.63;84.91
20696;BME280;10507;52.754;13.040;2023-08-31T08:02:34;99697.53;;;18.79;84.99
20696;BME280;10507;52.754;13.040;2023-08-31T08:05:02;99657.72;;;18.71;84.92
20696;BME280;10507;52.754;13.040;2023-08-31T08:07:32;99630.19;;;18.58;85.02
20696;BME280;10507;52.754;13.040;2023-08-31T08:10:00;99710.34;;;18.77;85.00
20696;BME280;10507;52.754;13.040;2023-08-31T08:12:36;99744.91;;;18.83;85.69
20696;BME280;10507;52.754;13.040;2023-08-31T08:15:06;99773.47;;;19.31;83.91
20696;BME280;10507;52.754;13.040;2023-08-31T08:17:34;99727.44;;;19.49;82.72
20696;BME280;10507;52.754;13.040;2023-08-31T08:20:06;99715.88;;;19.65;81.74
20696;BME280;10507;52.754;13.040;2023-08-31T08:22:37;99602.91;;;19.49;80.51
20696;BME280;10507;52.754;13.040;2023-08-31T08:25:05;99547.81;;;19.32;80.96
20696;BME280;10507;52.754;13.040;2023-08-31T08:27:33;99480.69;;;19.09;80.21
20696;BME280;10507;52.754;13.040;2023-08-31T08:30:04;99475.00;;;18.68;81.26
20696;BME280;10507;52.754;13.040;2023-08-31T08:32:33;99595.84;;;18.50;83.27
20696;BME280;10507;52.754;13.040;2023-08-31T08:35:01;99728.78;;;18.91;84.11
20696;BME280;10507;52.754;13.040;2023-08-31T08:37:30;99775.34;;;19.48;83.32
20696;BME280;10507;52.754;13.040;2023-08-31T08:40:03;99698.38;;;19.77;80.92
20696;BME280;10507;52.754;13.040;2023-08-31T08:42:32;99731.84;;;20.20;80.26
20696;BME280;10507;52.754;13.040;2023-08-31T08:45:06;99669.22;;;20.31;79.75
20696;BME280;10507;52.754;13.040;2023-08-31T08:47:35;99562.13;;;20.27;77.98
20696;BME280;10507;52.754;13.040;2023-08-31T08:50:05;99449.78;;;20.22;76.30
20696;BME280;10507;52.754;13.040;2023-08-31T08:52:34;99513.00;;;20.55;76.17
20696;BME280;10507;52.754;13.040;2023-08-31T08:55:05;99490.31;;;20.64;75.27
20696;BME280;10507;52.754;13.040;2023-08-31T08:57:33;99538.63;;;20.93;74.90
20696;BME280;10507;52.754;13.040;2023-08-31T09:00:03;99407.06;;;20.73;74.36
20696;BME280;10507;52.754;13.040;2023-08-31T09:02:31;99274.47;;;20.14;74.87
20696;BME280;10507;52.754;13.040;2023-08-31T09:04:59;99521.28;;;20.53;75.79
20696;BME280;10507;52.754;13.040;2023-08-31T09:07:29;99521.00;;;20.81;75.32
20696;BME280;10507;52.754;13.040;2023-08-31T09:09:59;99416.56;;;20.69;74.86
20696;BME280;10507;52.754;13.040;2023-08-31T09:12:28;99489.13;;;20.59;75.94
20696;BME280;10507;52.754;13.040;2023-08-31T09:14:57;99388.28;;;20.63;74.64
20696;BME280;10507;52.754;13.040;2023-08-31T09:17:25;99377.75;;;20.52;75.61
20696;BME280;10507;52.754;13.040;2023-08-31T09:20:00;99319.88;;;20.20;74.55
20696;BME280;10507;52.754;13.040;2023-08-31T09:22:29;99474.16;;;20.22;76.16
20696;BME280;10507;52.754;13.040;2023-08-31T09:24:57;99488.25;;;20.25;75.65
20696;BME280;10507;52.754;13.040;2023-08-31T09:27:25;99570.00;;;20.63;75.75
20696;BME280;10507;52.754;13.040;2023-08-31T09:29:55;99561.34;;;20.76;75.63
20696;BME280;10507;52.754;13.040;2023-08-31T09:32:23;99549.97;;;20.97;74.40
20696;BME280;10507;52.754;13.040;2023-08-31T09:34:52;99562.16;;;21.26;74.02
20696;BME280;10507;52.754;13.040;2023-08-31T09:37:40;99535.34;;;21.31;73.97
20696;BME280;10507;52.754;13.040;2023-08-31T09:40:10;99338.78;;;20.61;71.89
20696;BME280;10507;52.754;13.040;2023-08-31T09:42:42;99381.66;;;20.66;71.97
20696;BME280;10507;52.754;13.040;2023-08-31T09:45:11;99345.38;;;20.42;71.46
20696;BME280;10507;52.754;13.040;2023-08-31T09:47:42;99358.66;;;20.21;70.96
20696;BME280;10507;52.754;13.040;2023-08-31T09:50:11;99492.88;;;20.66;71.99
20696;BME280;10507;52.754;13.040;2023-08-31T09:52:39;99421.16;;;20.68;70.98
20696;BME280;10507;52.754;13.040;2023-08-31T09:55:11;99441.28;;;20.82;71.10
20696;BME280;10507;52.754;13.040;2023-08-31T09:57:40;99390.81;;;20.40;71.38
20696;BME280;10507;52.754;13.040;2023-08-31T10:00:15;99425.56;;;20.28;71.97
20696;BME280;10507;52.754;13.040;2023-08-31T10:02:45;99420.44;;;19.92;72.01
20696;BME280;10507;52.754;13.040;2023-08-31T10:05:15;99433.31;;;19.82;71.58
20696;BME280;10507;52.754;13.040;2023-08-31T10:07:43;99503.44;;;19.93;72.48
20696;BME280;10507;52.754;13.040;2023-08-31T10:10:12;99526.28;;;19.91;73.24
20696;BME280;10507;52.754;13.040;2023-08-31T10:12:41;99533.22;;;19.59;73.37
20696;BME280;10507;52.754;13.040;2023-08-31T10:15:10;99509.88;;;19.58;72.61
20696;BME280;10507;52.754;13.040;2023-08-31T10:17:40;99588.75;;;19.63;74.01
20696;BME280;10507;52.754;13.040;2023-08-31T10:20:10;99598.28;;;19.41;74.20
20696;BME280;10507;52.754;13.040;2023-08-31T10:22:42;99627.34;;;19.39;73.96
20696;BME280;10507;52.754;13.040;2023-08-31T10:25:10;99655.00;;;19.25;74.73
20696;BME280;10507;52.754;13.040;2023-08-31T10:27:39;99625.41;;;18.69;74.51
20696;BME280;10507;52.754;13.040;2023-08-31T10:30:16;99657.19;;;17.18;78.77
20696;BME280;10507;52.754;13.040;2023-08-31T10:33:19;99781.09;;;16.19;81.90
20696;BME280;10507;52.754;13.040;2023-08-31T10:35:49;99877.69;;;15.91;85.35
20696;BME280;10507;52.754;13.040;2023-08-31T10:38:24;99974.53;;;15.70;89.08
20696;BME280;10507;52.754;13.040;2023-08-31T10:41:18;100071.69;;;15.67;93.39
20696;BME280;10507;52.754;13.040;2023-08-31T10:43:49;100125.03;;;15.85;95.51
20696;BME280;10507;52.754;13.040;2023-08-31T10:46:28;100122.47;;;15.83;96.96
20696;BME280;10507;52.754;13.040;2023-08-31T10:48:59;100147.06;;;15.90;98.44
20696;BME280;10507;52.754;13.040;2023-08-31T10:51:30;100160.91;;;15.96;99.30
20696;BME280;10507;52.754;13.040;2023-08-31T10:54:05;100166.75;;;16.02;100.00
20696;BME280;10507;52.754;13.040;2023-08-31T10:56:33;100193.06;;;16.09;100.00
20696;BME280;10507;52.754;13.040;2023-08-31T10:59:06;100169.34;;;16.14;100.00
20696;BME280;10507;52.754;13.040;2023-08-31T11:01:59;100164.50;;;16.29;100.00
20696;BME280;10507;52.754;13.040;2023-08-31T11:04:31;100187.72;;;16.64;100.00
20696;BME280;10507;52.754;13.040;2023-08-31T11:07:25;100170.53;;;17.09;100.00
20696;BME280;10507;52.754;13.040;2023-08-31T11:10:07;100141.94;;;17.69;100.00
20696;BME280;10507;52.754;13.040;2023-08-31T11:12:36;100114.84;;;18.21;98.11
20696;BME280;10507;52.754;13.040;2023-08-31T11:15:05;100053.25;;;18.63;94.68
20696;BME280;10507;52.754;13.040;2023-08-31T11:17:34;100008.91;;;19.03;91.03
20696;BME280;10507;52.754;13.040;2023-08-31T11:20:05;99934.94;;;19.22;87.07
20696;BME280;10507;52.754;13.040;2023-08-31T11:22:37;99896.75;;;19.43;84.73
20696;BME280;10507;52.754;13.040;2023-08-31T11:25:07;99935.25;;;19.65;84.34
20696;BME280;10507;52.754;13.040;2023-08-31T11:27:35;99933.06;;;19.78;84.75
20696;BME280;10507;52.754;13.040;2023-08-31T11:30:04;99803.09;;;19.50;81.01
20696;BME280;10507;52.754;13.040;2023-08-31T11:32:44;99769.22;;;19.10;80.34
20696;BME280;10507;52.754;13.040;2023-08-31T11:35:14;99801.09;;;18.89;81.34
20696;BME280;10507;52.754;13.040;2023-08-31T11:37:45;99815.19;;;18.55;82.08
20696;BME280;10507;52.754;13.040;2023-08-31T11:40:15;99847.59;;;18.65;82.46
20696;BME280;10507;52.754;13.040;2023-08-31T11:42:43;99886.25;;;18.85;82.92
20696;BME280;10507;52.754;13.040;2023-08-31T11:45:12;99848.22;;;19.14;80.99
20696;BME280;10507;52.754;13.040;2023-08-31T11:47:41;99863.59;;;19.59;79.71
20696;BME280;10507;52.754;13.040;2023-08-31T11:50:10;99697.88;;;19.73;74.66
20696;BME280;10507;52.754;13.040;2023-08-31T11:52:40;99643.06;;;19.62;72.79
20696;BME280;10507;52.754;13.040;2023-08-31T11:55:14;99701.09;;;19.77;73.62
20696;BME280;10507;52.754;13.040;2023-08-31T11:57:48;99709.38;;;20.02;73.24
20696;BME280;10507;52.754;13.040;2023-08-31T12:00:18;99652.34;;;20.11;71.72
20696;BME280;10507;52.754;13.040;2023-08-31T12:02:55;99649.84;;;20.18;71.58
20696;BME280;10507;52.754;13.040;2023-08-31T12:05:24;99626.28;;;20.19;70.85
20696;BME280;10507;52.754;13.040;2023-08-31T12:07:55;99664.44;;;20.25;71.67
20696;BME280;10507;52.754;13.040;2023-08-31T12:10:24;99610.28;;;19.99;71.10
20696;BME280;10507;52.754;13.040;2023-08-31T12:12:52;99671.72;;;19.64;72.72
20696;BME280;10507;52.754;13.040;2023-08-31T12:15:23;99741.94;;;19.40;75.26
20696;BME280;10507;52.754;13.040;2023-08-31T12:17:51;99765.72;;;19.00;75.84
20696;BME280;10507;52.754;13.040;2023-08-31T12:20:24;99825.59;;;18.87;77.70
20696;BME280;10507;52.754;13.040;2023-08-31T12:22:54;99792.72;;;18.55;77.14
20696;BME280;10507;52.754;13.040;2023-08-31T12:25:22;99751.88;;;18.20;76.68
20696;BME280;10507;52.754;13.040;2023-08-31T12:27:50;99850.03;;;17.53;80.85
20696;BME280;10507;52.754;13.040;2023-08-31T12:30:18;99972.19;;;17.55;84.67
20696;BME280;10507;52.754;13.040;2023-08-31T12:32:46;100008.19;;;17.65;84.94
20696;BME280;10507;52.754;13.040;2023-08-31T12:35:15;100023.06;;;18.00;85.09
20696;BME280;10507;52.754;13.040;2023-08-31T12:37:43;99956.97;;;17.94;83.23
20696;BME280;10507;52.754;13.040;2023-08-31T12:40:13;99918.31;;;17.94;82.42
20696;BME280;10507;52.754;13.040;2023-08-31T12:42:42;99912.47;;;17.98;81.57
20696;BME280;10507;52.754;13.040;2023-08-31T12:45:11;99945.31;;;18.23;81.57
20696;BME280;10507;52.754;13.040;2023-08-31T12:47:39;99950.13;;;18.39;81.58
20696;BME280;10507;52.754;13.040;2023-08-31T12:50:08;99955.09;;;18.43;81.40
20696;BME280;10507;52.754;13.040;2023-08-31T12:52:37;99970.72;;;18.49;81.94
20696;BME280;10507;52.754;13.040;2023-08-31T12:55:12;99928.75;;;18.55;80.74